FLI402 EKVG-BIKF
Flight info
| Callsign | FLI402 |
|---|---|
| Flight time | N/A |
| Altitude | 28000 |
| Route | MY DCT ING DCT NASBU NASBU2H |
| Aircraft | A20N/M-SDE2E3FGHIRWXY/LB1 |
Departure
| Time | N/A |
|---|---|
| Airport | Vágar Airport (EKVG) |
Arrival
| Time | 2026-04-30 17:55 |
|---|---|
| Airport | Keflavik International Airport (BIKF) |
| Time | Latitude | Longitude | Altitude | Speed | Heading |
|---|---|---|---|---|---|
| 2026-04-30 17:39 | 63.95761 | -20.75818 | 10517 ft | 254 kts | 268° |
| 2026-04-30 17:41 | 63.96538 | -21.07824 | 9067 ft | 252 kts | 269° |
| 2026-04-30 17:42 | 63.96732 | -21.15784 | 8679 ft | 251 kts | 269° |
| 2026-04-30 17:42 | 63.97007 | -21.27727 | 8118 ft | 251 kts | 269° |
| 2026-04-30 17:43 | 63.97180 | -21.35600 | 7748 ft | 250 kts | 269° |
| 2026-04-30 17:44 | 63.97421 | -21.47238 | 7196 ft | 234 kts | 269° |
| 2026-04-30 17:44 | 63.97633 | -21.57845 | 6657 ft | 222 kts | 269° |
| 2026-04-30 17:46 | 63.97966 | -21.75592 | 5856 ft | 224 kts | 269° |
| 2026-04-30 17:47 | 63.98703 | -21.89444 | 5217 ft | 213 kts | 267° |
| 2026-04-30 17:48 | 63.98642 | -22.02153 | 4992 ft | 183 kts | 265° |
| 2026-04-30 17:48 | 63.98605 | -22.10593 | 4538 ft | 176 kts | 265° |
| 2026-04-30 17:49 | 63.98568 | -22.21359 | 3588 ft | 162 kts | 265° |
| 2026-04-30 17:50 | 63.98542 | -22.31186 | 2715 ft | 147 kts | 264° |
| 2026-04-30 17:51 | 63.98527 | -22.38020 | 2113 ft | 141 kts | 265° |
| 2026-04-30 17:52 | 63.98519 | -22.44611 | 1530 ft | 124 kts | 264° |
| 2026-04-30 17:53 | 63.98508 | -22.54357 | 642 ft | 120 kts | 262° |
| 2026-04-30 17:54 | 63.98485 | -22.61588 | 155 ft | 55 kts | 273° |
| 2026-04-30 17:55 | 63.98584 | -22.63080 | 135 ft | 15 kts | 7° |
| 2026-04-30 17:56 | 63.98939 | -22.62847 | 136 ft | 16 kts | 16° |
| 2026-04-30 17:57 | 63.99223 | -22.62683 | 140 ft | 11 kts | 343° |
| 2026-04-30 17:58 | 63.99401 | -22.62682 | 140 ft | 4 kts | 92° |
| 2026-04-30 17:59 | 63.99370 | -22.62539 | 140 ft | 0 kts | 116° |